Time;durP1;ratioP1;P1;durP2;ratioP2;P2;SDS_P1;SDS_P2;PMS_P1;PMS_P2;Temp;Humidity;BMP_temperature;BMP_pressure;BME280_temperature;BME280_humidity;BME280_pressure;Samples;Min_cycle;Max_cycle;Signal;HPM_P1;HPM_P2
2023/07/09 00:04:55;;;;;;;1.63;1.52;;;;;;;;;;10310960;28;20736;-74
2023/07/09 00:09:56;;;;;;;1.88;1.73;;;;;;;;;;10329816;28;20598;-74
2023/07/09 00:14:58;;;;;;;2.30;2.20;;;;;;;;;;10314967;28;20219;-76
2023/07/09 00:20:00;;;;;;;2.30;2.20;;;;;;;;;;10288295;28;20220;-74
2023/07/09 00:25:01;;;;;;;2.50;2.40;;;;;;;;;;10306435;28;20228;-76
2023/07/09 00:30:04;;;;;;;2.75;2.50;;;;;;;;;;10298228;28;20277;-73
2023/07/09 00:35:06;;;;;;;2.40;2.20;;;;;;;;;;10324689;28;20731;-75
2023/07/09 00:40:11;;;;;;;2.10;2.00;;;;;;;;;;10299153;28;20254;-75
2023/07/09 00:45:21;;;;;;;2.30;2.20;;;;;;;;;;10309461;28;20214;-74
2023/07/09 00:50:27;;;;;;;2.50;2.40;;;;;;;;;;10295832;28;20212;-74
2023/07/09 00:55:32;;;;;;;2.22;2.13;;;;;;;;;;10297295;28;20212;-74
2023/07/09 01:00:35;;;;;;;3.03;2.92;;;;;;;;;;10317065;28;20388;-74
2023/07/09 01:05:39;;;;;;;3.72;3.42;;;;;;;;;;10328305;28;20228;-73
2023/07/09 01:10:40;;;;;;;3.22;3.13;;;;;;;;;;10299496;28;20235;-73
2023/07/09 01:15:41;;;;;;;4.05;3.45;;;;;;;;;;10290347;28;20298;-74
2023/07/09 01:20:43;;;;;;;3.08;2.97;;;;;;;;;;10322764;28;20702;-73
2023/07/09 01:25:52;;;;;;;2.72;2.58;;;;;;;;;;10335315;28;20315;-74
2023/07/09 01:30:56;;;;;;;3.20;3.03;;;;;;;;;;10317897;28;20258;-74
2023/07/09 01:36:00;;;;;;;4.82;3.08;;;;;;;;;;10314795;28;20212;-73
2023/07/09 01:41:02;;;;;;;3.63;3.28;;;;;;;;;;10320920;28;20216;-74
2023/07/09 01:46:03;;;;;;;3.95;3.65;;;;;;;;;;10300077;28;20331;-74
2023/07/09 01:51:04;;;;;;;3.53;3.33;;;;;;;;;;10322508;28;20216;-74
2023/07/09 01:56:07;;;;;;;3.58;3.33;;;;;;;;;;10313612;28;20746;-73
2023/07/09 02:01:10;;;;;;;3.97;3.60;;;;;;;;;;10290988;28;20269;-74
2023/07/09 02:06:11;;;;;;;3.55;3.35;;;;;;;;;;10322218;28;20864;-74
2023/07/09 02:11:12;;;;;;;3.63;3.42;;;;;;;;;;10324295;28;20215;-74
2023/07/09 02:16:13;;;;;;;4.72;4.32;;;;;;;;;;10316355;28;20260;-75
2023/07/09 02:21:14;;;;;;;4.55;4.15;;;;;;;;;;10323410;28;20227;-74
2023/07/09 02:26:15;;;;;;;3.72;3.50;;;;;;;;;;10322903;28;21816;-74
2023/07/09 02:31:16;;;;;;;2.95;2.83;;;;;;;;;;10311248;28;20746;-75
2023/07/09 02:36:17;;;;;;;3.05;2.80;;;;;;;;;;10329523;28;20219;-74
2023/07/09 02:41:18;;;;;;;2.67;2.50;;;;;;;;;;10328795;28;20232;-75
2023/07/09 02:46:20;;;;;;;3.15;2.85;;;;;;;;;;10310671;28;20224;-74
2023/07/09 02:51:21;;;;;;;2.35;2.25;;;;;;;;;;10317550;28;20216;-74
2023/07/09 02:56:22;;;;;;;4.40;2.70;;;;;;;;;;10327481;28;20212;-73
2023/07/09 03:01:26;;;;;;;7.13;1.92;;;;;;;;;;10314978;28;20647;-74
2023/07/09 03:06:28;;;;;;;2.45;2.45;;;;;;;;;;10316558;28;20234;-74
2023/07/09 03:11:30;;;;;;;2.13;2.05;;;;;;;;;;10331771;28;20260;-74
2023/07/09 03:16:33;;;;;;;2.63;2.53;;;;;;;;;;10314010;28;20220;-73
2023/07/09 03:21:35;;;;;;;2.38;2.28;;;;;;;;;;10313443;28;20218;-74
2023/07/09 03:26:36;;;;;;;2.13;1.70;;;;;;;;;;10311209;28;20229;-74
2023/07/09 03:31:38;;;;;;;3.08;2.17;;;;;;;;;;10324868;28;20287;-73
2023/07/09 03:36:39;;;;;;;1.88;1.85;;;;;;;;;;10315697;28;20346;-74
2023/07/09 03:41:40;;;;;;;3.05;2.13;;;;;;;;;;10313860;28;20211;-73
2023/07/09 03:46:41;;;;;;;9.32;2.75;;;;;;;;;;10303635;28;20801;-74
2023/07/09 03:51:42;;;;;;;2.30;2.17;;;;;;;;;;10325462;28;20365;-74
2023/07/09 03:56:44;;;;;;;1.73;1.63;;;;;;;;;;10298276;28;20584;-74
2023/07/09 04:01:45;;;;;;;2.13;2.10;;;;;;;;;;10311455;28;20410;-74
2023/07/09 04:06:47;;;;;;;2.10;2.00;;;;;;;;;;10298381;28;21202;-74
2023/07/09 04:11:49;;;;;;;1.63;1.63;;;;;;;;;;10337637;28;20219;-74
2023/07/09 04:16:50;;;;;;;1.80;1.80;;;;;;;;;;10332239;28;20223;-73
2023/07/09 04:21:51;;;;;;;1.90;1.85;;;;;;;;;;10334088;28;20219;-73
2023/07/09 04:26:56;;;;;;;2.17;2.08;;;;;;;;;;10290096;28;20224;-74
2023/07/09 04:31:57;;;;;;;2.55;2.30;;;;;;;;;;10315513;28;20224;-73
2023/07/09 04:36:58;;;;;;;2.08;2.08;;;;;;;;;;10310742;28;20561;-73
2023/07/09 04:41:59;;;;;;;2.55;2.40;;;;;;;;;;10309181;28;20243;-74
2023/07/09 04:47:00;;;;;;;2.03;1.98;;;;;;;;;;10334900;28;20212;-73
2023/07/09 04:52:02;;;;;;;2.47;2.38;;;;;;;;;;10298127;28;20338;-74
2023/07/09 04:57:03;;;;;;;2.13;2.13;;;;;;;;;;10309550;28;20267;-75
2023/07/09 05:02:05;;;;;;;2.40;2.30;;;;;;;;;;10329018;28;20252;-74
2023/07/09 05:07:06;;;;;;;2.42;2.33;;;;;;;;;;10298498;28;20305;-74
2023/07/09 05:12:08;;;;;;;2.80;2.70;;;;;;;;;;10321775;28;20216;-74
2023/07/09 05:17:09;;;;;;;2.40;2.30;;;;;;;;;;10332420;28;20215;-74
2023/07/09 05:22:10;;;;;;;2.40;2.40;;;;;;;;;;10302473;28;20219;-75
2023/07/09 05:27:11;;;;;;;3.17;2.70;;;;;;;;;;10330807;28;20256;-74
2023/07/09 05:32:12;;;;;;;3.63;2.70;;;;;;;;;;10309543;28;20216;-73
2023/07/09 05:37:14;;;;;;;2.55;2.42;;;;;;;;;;10312589;28;20204;-74
2023/07/09 05:42:15;;;;;;;2.25;2.22;;;;;;;;;;10319253;28;20223;-74
2023/07/09 05:47:16;;;;;;;2.95;2.85;;;;;;;;;;10325359;28;20883;-74
2023/07/09 05:52:21;;;;;;;2.50;2.30;;;;;;;;;;10314156;28;20216;-75
2023/07/09 05:57:22;;;;;;;2.60;2.42;;;;;;;;;;10325009;28;20782;-74
2023/07/09 06:02:23;;;;;;;2.88;2.75;;;;;;;;;;10327260;28;20211;-74
2023/07/09 06:07:24;;;;;;;2.90;2.80;;;;;;;;;;10312306;28;20238;-74
2023/07/09 06:12:26;;;;;;;3.13;2.92;;;;;;;;;;10317786;28;21195;-74
2023/07/09 06:17:27;;;;;;;2.88;2.78;;;;;;;;;;10330019;28;20219;-74
2023/07/09 06:22:28;;;;;;;3.03;2.85;;;;;;;;;;10314209;28;20705;-74
2023/07/09 06:27:29;;;;;;;3.13;3.03;;;;;;;;;;10311800;28;20227;-74
2023/07/09 06:32:30;;;;;;;2.78;2.67;;;;;;;;;;10331027;28;20879;-74
2023/07/09 06:37:31;;;;;;;3.75;3.60;;;;;;;;;;10326193;28;20208;-74
2023/07/09 06:42:32;;;;;;;3.20;3.10;;;;;;;;;;10314139;28;20313;-73
2023/07/09 06:47:46;;;;;;;3.40;3.30;;;;;;;;;;10315597;28;20283;-73
2023/07/09 06:52:47;;;;;;;3.75;3.30;;;;;;;;;;10315635;28;20215;-73
2023/07/09 06:57:48;;;;;;;3.28;3.17;;;;;;;;;;10328253;28;20197;-75
2023/07/09 07:02:49;;;;;;;3.13;2.95;;;;;;;;;;10296945;28;20212;-74
2023/07/09 07:07:50;;;;;;;3.53;3.33;;;;;;;;;;10322955;28;20268;-75
2023/07/09 07:12:51;;;;;;;3.60;3.30;;;;;;;;;;10311778;28;20311;-75
2023/07/09 07:17:52;;;;;;;3.35;3.25;;;;;;;;;;10309377;28;20306;-74
2023/07/09 07:22:54;;;;;;;3.67;3.55;;;;;;;;;;10327198;28;20212;-76
2023/07/09 07:27:55;;;;;;;3.90;3.70;;;;;;;;;;10332356;28;20224;-76
2023/07/09 07:32:56;;;;;;;3.25;3.15;;;;;;;;;;10308001;28;20227;-76
2023/07/09 07:37:57;;;;;;;3.88;3.67;;;;;;;;;;10335392;28;20365;-76
2023/07/09 07:42:58;;;;;;;3.90;3.60;;;;;;;;;;10353957;28;20893;-76
2023/07/09 07:48:00;;;;;;;3.67;3.40;;;;;;;;;;10329296;28;20648;-76
2023/07/09 07:53:01;;;;;;;3.97;3.80;;;;;;;;;;10313553;28;20211;-78
2023/07/09 07:58:03;;;;;;;4.03;3.42;;;;;;;;;;10320876;28;20212;-75
2023/07/09 08:03:05;;;;;;;3.10;3.00;;;;;;;;;;10304582;28;20287;-76
2023/07/09 08:08:06;;;;;;;3.42;3.33;;;;;;;;;;10319011;28;20228;-76
2023/07/09 08:13:07;;;;;;;3.40;3.30;;;;;;;;;;10319640;28;20239;-74
2023/07/09 08:18:08;;;;;;;3.75;3.65;;;;;;;;;;10314249;28;21202;-77
2023/07/09 08:23:09;;;;;;;3.33;3.20;;;;;;;;;;10318685;28;20248;-75
2023/07/09 08:28:11;;;;;;;3.50;3.40;;;;;;;;;;10322417;28;20297;-74
2023/07/09 08:33:13;;;;;;;3.25;3.15;;;;;;;;;;10304962;28;20213;-74
2023/07/09 08:38:14;;;;;;;3.60;3.30;;;;;;;;;;10292333;28;20204;-76
2023/07/09 08:43:23;;;;;;;3.20;3.10;;;;;;;;;;10342199;28;20216;-76
2023/07/09 08:48:30;;;;;;;3.25;2.97;;;;;;;;;;10323266;28;20224;-80
2023/07/09 08:53:36;;;;;;;3.30;3.00;;;;;;;;;;10339460;28;20226;-77
2023/07/09 08:58:38;;;;;;;3.10;3.00;;;;;;;;;;10331148;28;20220;-76
2023/07/09 09:03:42;;;;;;;2.90;2.80;;;;;;;;;;10332428;28;20709;-75
2023/07/09 09:08:55;;;;;;;3.58;3.47;;;;;;;;;;10299800;28;20543;-76
2023/07/09 09:13:59;;;;;;;3.17;3.08;;;;;;;;;;10321687;28;20235;-75
2023/07/09 09:19:01;;;;;;;3.17;3.08;;;;;;;;;;10320762;28;20224;-77
2023/07/09 09:24:12;;;;;;;3.88;3.10;;;;;;;;;;10326629;28;20217;-75
2023/07/09 09:29:15;;;;;;;3.13;3.03;;;;;;;;;;10335354;28;20240;-77
2023/07/09 09:34:21;;;;;;;3.30;3.20;;;;;;;;;;10325077;28;20217;-76
2023/07/09 09:39:24;;;;;;;3.58;3.38;;;;;;;;;;10327929;28;20216;-76
2023/07/09 09:44:26;;;;;;;3.30;3.22;;;;;;;;;;10325772;28;20220;-78
2023/07/09 09:49:28;;;;;;;3.00;3.00;;;;;;;;;;10331686;28;20223;-75
2023/07/09 09:54:30;;;;;;;3.00;2.90;;;;;;;;;;10312594;28;20217;-76
2023/07/09 09:59:33;;;;;;;2.95;2.88;;;;;;;;;;10348058;28;20226;-76
2023/07/09 10:04:34;;;;;;;2.70;2.50;;;;;;;;;;10345228;28;20223;-76
2023/07/09 10:09:47;;;;;;;2.95;2.85;;;;;;;;;;10328097;28;20235;-77
2023/07/09 10:15:01;;;;;;;2.97;2.88;;;;;;;;;;10330099;28;20220;-76
2023/07/09 10:20:20;;;;;;;2.65;2.45;;;;;;;;;;10324765;28;20541;-75
2023/07/09 10:25:38;;;;;;;2.40;2.30;;;;;;;;;;10329230;28;20211;-77
2023/07/09 10:30:47;;;;;;;3.15;2.67;;;;;;;;;;10323858;28;20215;-76
2023/07/09 10:36:15;;;;;;;2.80;2.75;;;;;;;;;;10328861;28;20215;-76
2023/07/09 10:41:17;;;;;;;2.63;2.50;;;;;;;;;;10319949;28;20250;-77
2023/07/09 10:46:23;;;;;;;2.90;2.28;;;;;;;;;;10309818;28;20227;-78
2023/07/09 10:51:29;;;;;;;2.30;2.20;;;;;;;;;;10298418;28;20223;-77
2023/07/09 10:56:33;;;;;;;2.10;1.80;;;;;;;;;;10321414;28;20221;-76
2023/07/09 11:01:38;;;;;;;1.67;1.67;;;;;;;;;;10342313;28;20227;-77
2023/07/09 11:06:43;;;;;;;1.85;1.85;;;;;;;;;;10309732;28;20266;-77
2023/07/09 11:11:48;;;;;;;1.73;1.63;;;;;;;;;;10339642;28;20747;-77
2023/07/09 11:16:49;;;;;;;1.75;1.67;;;;;;;;;;10326141;28;20215;-78
2023/07/09 11:22:03;;;;;;;1.90;1.80;;;;;;;;;;10320760;28;20321;-76
2023/07/09 11:27:16;;;;;;;1.83;1.83;;;;;;;;;;10347720;28;20255;-78
2023/07/09 11:32:21;;;;;;;2.17;2.15;;;;;;;;;;10339343;28;20242;-77
2023/07/09 11:37:26;;;;;;;1.80;1.80;;;;;;;;;;10309329;28;20692;-76
2023/07/09 11:42:31;;;;;;;5.15;1.77;;;;;;;;;;10326736;28;20231;-77
2023/07/09 11:47:45;;;;;;;1.58;1.58;;;;;;;;;;10296128;28;20216;-77
2023/07/09 11:52:48;;;;;;;2.00;2.00;;;;;;;;;;10315178;28;20622;-76
2023/07/09 11:57:53;;;;;;;3.00;1.98;;;;;;;;;;10341249;28;20219;-78
2023/07/09 12:02:55;;;;;;;2.58;2.35;;;;;;;;;;10321398;28;20278;-76
2023/07/09 12:07:57;;;;;;;2.05;2.03;;;;;;;;;;10338228;28;20262;-77
2023/07/09 12:12:59;;;;;;;1.98;1.98;;;;;;;;;;10312789;28;20220;-79
2023/07/09 12:18:04;;;;;;;1.75;1.75;;;;;;;;;;10291378;28;20208;-77
2023/07/09 12:23:27;;;;;;;3.13;2.00;;;;;;;;;;10299454;28;20771;-77
2023/07/09 12:28:29;;;;;;;2.28;1.83;;;;;;;;;;10334724;28;20207;-79
2023/07/09 12:33:30;;;;;;;1.88;1.88;;;;;;;;;;10313030;28;20289;-76
2023/07/09 12:38:40;;;;;;;1.90;1.80;;;;;;;;;;10341579;28;20208;-76
2023/07/09 12:43:42;;;;;;;1.77;1.77;;;;;;;;;;10335228;28;20245;-77
2023/07/09 12:48:43;;;;;;;1.85;1.83;;;;;;;;;;10310429;28;20251;-78
2023/07/09 12:53:45;;;;;;;2.20;2.20;;;;;;;;;;10332833;28;20211;-76
2023/07/09 12:58:46;;;;;;;1.80;1.80;;;;;;;;;;10334801;28;20283;-76
2023/07/09 13:03:54;;;;;;;2.13;2.13;;;;;;;;;;10338034;28;20265;-80
2023/07/09 13:08:59;;;;;;;2.08;2.08;;;;;;;;;;10340227;28;20705;-77
2023/07/09 13:14:04;;;;;;;2.40;2.35;;;;;;;;;;10327165;28;20230;-78
2023/07/09 13:19:05;;;;;;;2.20;2.10;;;;;;;;;;10327653;28;21049;-78
2023/07/09 13:24:39;;;;;;;2.17;2.10;;;;;;;;;;10329311;28;20223;-78
2023/07/09 13:29:41;;;;;;;2.05;2.05;;;;;;;;;;10283213;28;20224;-77
2023/07/09 13:34:43;;;;;;;2.22;2.13;;;;;;;;;;10324801;28;21004;-77
2023/07/09 13:39:45;;;;;;;2.03;2.00;;;;;;;;;;10329732;28;20303;-77
2023/07/09 13:44:47;;;;;;;1.83;1.83;;;;;;;;;;10330182;28;20778;-77
2023/07/09 13:49:48;;;;;;;2.10;2.03;;;;;;;;;;10334261;28;20212;-78
2023/07/09 13:54:49;;;;;;;1.95;1.95;;;;;;;;;;10338962;28;20223;-77
2023/07/09 13:59:51;;;;;;;1.77;1.77;;;;;;;;;;10329833;28;20223;-77
2023/07/09 14:04:52;;;;;;;3.78;2.50;;;;;;;;;;10335903;28;20225;-77
2023/07/09 14:09:53;;;;;;;2.15;2.15;;;;;;;;;;10321807;28;21196;-77
2023/07/09 14:14:58;;;;;;;2.08;1.98;;;;;;;;;;10324879;28;20212;-77
2023/07/09 14:20:00;;;;;;;1.88;1.88;;;;;;;;;;10335666;28;20211;-75
2023/07/09 14:25:02;;;;;;;2.30;2.00;;;;;;;;;;10341170;28;20224;-75
2023/07/09 14:30:03;;;;;;;2.35;2.25;;;;;;;;;;10338039;28;21895;-74
2023/07/09 14:35:11;;;;;;;2.15;2.10;;;;;;;;;;10314008;28;20192;-75
2023/07/09 14:40:13;;;;;;;2.38;2.33;;;;;;;;;;10338444;28;20289;-76
2023/07/09 14:45:17;;;;;;;2.05;2.05;;;;;;;;;;10338130;28;20219;-76
2023/07/09 14:50:18;;;;;;;2.67;2.58;;;;;;;;;;10340077;28;20745;-75
2023/07/09 14:55:21;;;;;;;2.60;2.50;;;;;;;;;;10307468;28;20374;-75
2023/07/09 15:00:23;;;;;;;2.25;2.15;;;;;;;;;;10325944;28;20223;-77
2023/07/09 15:05:25;;;;;;;4.32;1.92;;;;;;;;;;10337363;28;20226;-74
2023/07/09 15:10:27;;;;;;;2.33;2.33;;;;;;;;;;10333422;28;20232;-76
2023/07/09 15:15:29;;;;;;;2.13;2.03;;;;;;;;;;10314956;28;20222;-77
2023/07/09 15:20:30;;;;;;;2.22;2.20;;;;;;;;;;10327759;28;20222;-77
2023/07/09 15:25:32;;;;;;;1.90;1.90;;;;;;;;;;10310820;28;20290;-76
2023/07/09 15:30:33;;;;;;;2.58;2.38;;;;;;;;;;10334595;28;20231;-75
2023/07/09 15:35:35;;;;;;;2.10;2.00;;;;;;;;;;10321017;28;20230;-76
2023/07/09 15:40:36;;;;;;;2.08;2.08;;;;;;;;;;10334916;28;20252;-78
2023/07/09 15:45:47;;;;;;;2.20;2.20;;;;;;;;;;10308174;28;20226;-77
2023/07/09 15:50:48;;;;;;;1.75;1.75;;;;;;;;;;10320742;28;21348;-78
2023/07/09 15:55:50;;;;;;;2.03;1.92;;;;;;;;;;10323821;28;20226;-78
2023/07/09 16:00:51;;;;;;;2.05;2.05;;;;;;;;;;10304162;28;20224;-79
2023/07/09 16:05:52;;;;;;;2.13;2.03;;;;;;;;;;10337166;28;20227;-77
2023/07/09 16:10:53;;;;;;;2.10;2.00;;;;;;;;;;10321696;28;20238;-76
2023/07/09 16:15:54;;;;;;;2.40;2.30;;;;;;;;;;10327316;28;20218;-77
2023/07/09 16:20:56;;;;;;;6.57;2.20;;;;;;;;;;10327381;28;20219;-76
2023/07/09 16:25:57;;;;;;;2.00;2.00;;;;;;;;;;10335149;28;20224;-79
2023/07/09 16:30:58;;;;;;;2.50;2.40;;;;;;;;;;10332283;28;20226;-75
2023/07/09 16:36:03;;;;;;;1.92;1.83;;;;;;;;;;10322937;28;20970;-76
2023/07/09 16:41:04;;;;;;;2.58;2.47;;;;;;;;;;10324958;28;20331;-77
2023/07/09 16:46:24;;;;;;;2.10;2.10;;;;;;;;;;10340772;28;20314;-76
2023/07/09 16:51:25;;;;;;;2.92;2.35;;;;;;;;;;10337976;28;20319;-77
2023/07/09 16:56:26;;;;;;;3.10;1.92;;;;;;;;;;10331277;28;20314;-76
2023/07/09 17:01:27;;;;;;;2.10;2.00;;;;;;;;;;10315339;28;20221;-78
2023/07/09 17:06:28;;;;;;;2.10;2.00;;;;;;;;;;10315763;28;20236;-78
2023/07/09 17:11:29;;;;;;;2.22;2.22;;;;;;;;;;10328219;28;20227;-78
2023/07/09 17:16:31;;;;;;;2.30;2.20;;;;;;;;;;10326218;28;20208;-77
2023/07/09 17:21:32;;;;;;;2.50;2.40;;;;;;;;;;10313887;28;20228;-81
2023/07/09 17:26:33;;;;;;;4.55;2.40;;;;;;;;;;10322135;28;20223;-77
2023/07/09 17:31:34;;;;;;;2.30;2.20;;;;;;;;;;10332778;28;20220;-78
2023/07/09 17:36:35;;;;;;;2.10;1.95;;;;;;;;;;10316571;28;20235;-78
2023/07/09 17:41:36;;;;;;;2.22;2.13;;;;;;;;;;10308450;28;20315;-78
2023/07/09 17:46:37;;;;;;;4.65;3.03;;;;;;;;;;10299828;28;20273;-78
2023/07/09 17:51:38;;;;;;;10.02;3.08;;;;;;;;;;10317005;28;20219;-79
2023/07/09 17:56:40;;;;;;;2.45;2.28;;;;;;;;;;10319900;28;20242;-81
2023/07/09 18:01:41;;;;;;;2.80;2.70;;;;;;;;;;10309279;28;20223;-77
2023/07/09 18:06:47;;;;;;;2.65;2.65;;;;;;;;;;10323283;28;20315;-78
2023/07/09 18:11:51;;;;;;;2.67;2.65;;;;;;;;;;10317196;28;20239;-76
2023/07/09 18:16:52;;;;;;;2.65;2.55;;;;;;;;;;10326461;28;20309;-75
2023/07/09 18:22:01;;;;;;;2.88;2.88;;;;;;;;;;10327823;28;20319;-76
2023/07/09 18:27:02;;;;;;;2.70;2.63;;;;;;;;;;10328548;28;20224;-79
2023/07/09 18:32:04;;;;;;;3.53;3.10;;;;;;;;;;10312278;28;20232;-76
2023/07/09 18:37:05;;;;;;;5.05;2.90;;;;;;;;;;10326184;28;20270;-77
2023/07/09 18:42:12;;;;;;;2.90;2.80;;;;;;;;;;10332512;28;20737;-82
2023/07/09 18:47:14;;;;;;;3.05;2.95;;;;;;;;;;10329062;28;20226;-78
2023/07/09 18:52:19;;;;;;;3.05;2.88;;;;;;;;;;10314621;28;20216;-79
2023/07/09 18:57:20;;;;;;;3.22;3.13;;;;;;;;;;10327834;28;21713;-78
2023/07/09 19:02:23;;;;;;;2.83;2.80;;;;;;;;;;10318998;28;20255;-79
2023/07/09 19:07:25;;;;;;;3.47;3.28;;;;;;;;;;10318479;28;20228;-79
2023/07/09 19:12:26;;;;;;;3.03;2.92;;;;;;;;;;10331449;28;20609;-77
2023/07/09 19:17:29;;;;;;;3.15;2.90;;;;;;;;;;10331512;28;20366;-79
2023/07/09 19:22:30;;;;;;;3.60;3.50;;;;;;;;;;10329072;28;20224;-76
2023/07/09 19:27:31;;;;;;;2.88;2.85;;;;;;;;;;10329358;28;20221;-76
2023/07/09 19:32:32;;;;;;;3.03;2.90;;;;;;;;;;10316411;28;20227;-79
2023/07/09 19:37:33;;;;;;;5.65;2.83;;;;;;;;;;10335395;28;20801;-81
2023/07/09 19:42:34;;;;;;;3.15;2.80;;;;;;;;;;10336974;28;20737;-77
2023/07/09 19:47:36;;;;;;;2.95;2.83;;;;;;;;;;10326157;28;20213;-82
2023/07/09 19:52:37;;;;;;;2.75;2.65;;;;;;;;;;10332775;28;20223;-76
2023/07/09 19:57:38;;;;;;;2.88;2.78;;;;;;;;;;10306179;28;20216;-78
2023/07/09 20:02:41;;;;;;;3.08;2.97;;;;;;;;;;10336558;28;20919;-78
2023/07/09 20:07:42;;;;;;;4.32;3.20;;;;;;;;;;10338857;28;20251;-78
2023/07/09 20:12:44;;;;;;;3.53;3.33;;;;;;;;;;10330093;28;20267;-77
2023/07/09 20:17:45;;;;;;;5.55;3.38;;;;;;;;;;10325230;28;20220;-77
2023/07/09 20:22:47;;;;;;;3.25;3.15;;;;;;;;;;10320740;28;20224;-78
2023/07/09 20:27:49;;;;;;;3.08;2.97;;;;;;;;;;10333464;28;20240;-77
2023/07/09 20:32:50;;;;;;;2.80;2.70;;;;;;;;;;10328102;28;20224;-77
2023/07/09 20:37:51;;;;;;;2.83;2.72;;;;;;;;;;10338811;28;20693;-77
2023/07/09 20:42:55;;;;;;;2.97;2.88;;;;;;;;;;10325298;28;20326;-78
2023/07/09 20:47:56;;;;;;;10.05;3.30;;;;;;;;;;10324998;28;20250;-77
2023/07/09 20:52:57;;;;;;;3.20;3.00;;;;;;;;;;10323945;28;20215;-77
2023/07/09 20:57:58;;;;;;;3.60;3.38;;;;;;;;;;10322777;28;20228;-77
2023/07/09 21:02:59;;;;;;;3.55;3.15;;;;;;;;;;10342632;28;20278;-77
2023/07/09 21:08:00;;;;;;;3.35;3.15;;;;;;;;;;10323828;28;20234;-77
2023/07/09 21:13:01;;;;;;;3.28;3.17;;;;;;;;;;10339205;28;20224;-75
2023/07/09 21:18:03;;;;;;;2.92;2.85;;;;;;;;;;10335442;28;20216;-76
2023/07/09 21:23:09;;;;;;;3.45;3.13;;;;;;;;;;10323582;28;20216;-78
2023/07/09 21:28:10;;;;;;;2.97;2.88;;;;;;;;;;10325093;28;20216;-77
2023/07/09 21:33:13;;;;;;;3.20;3.10;;;;;;;;;;10333421;28;20743;-78
2023/07/09 21:38:21;;;;;;;2.70;2.70;;;;;;;;;;10333973;28;20244;-79
2023/07/09 21:43:23;;;;;;;3.30;3.20;;;;;;;;;;10336448;28;20318;-79
2023/07/09 21:48:25;;;;;;;3.20;3.10;;;;;;;;;;10334906;28;20290;-76
2023/07/09 21:53:30;;;;;;;4.03;3.78;;;;;;;;;;10316575;28;20244;-77
2023/07/09 21:58:30;;;;;;;3.88;3.70;;;;;;;;;;10331890;28;20216;-77
2023/07/09 22:03:31;;;;;;;3.97;3.20;;;;;;;;;;10319489;28;20741;-78
2023/07/09 22:08:32;;;;;;;7.80;4.20;;;;;;;;;;10329907;28;20224;-79
2023/07/09 22:13:34;;;;;;;4.10;3.90;;;;;;;;;;10327083;28;20219;-77
2023/07/09 22:18:35;;;;;;;4.05;3.78;;;;;;;;;;10308006;28;20216;-79
2023/07/09 22:23:36;;;;;;;3.40;3.15;;;;;;;;;;10332931;28;20247;-76
2023/07/09 22:28:37;;;;;;;3.88;3.58;;;;;;;;;;10333146;28;20215;-77
2023/07/09 22:33:37;;;;;;;3.78;3.53;;;;;;;;;;10327546;28;20705;-78
2023/07/09 22:38:38;;;;;;;3.83;3.60;;;;;;;;;;10329377;28;20265;-78
2023/07/09 22:43:40;;;;;;;5.68;3.42;;;;;;;;;;10322459;28;20796;-79
2023/07/09 22:48:42;;;;;;;3.90;3.70;;;;;;;;;;10330929;28;20223;-76
2023/07/09 22:53:43;;;;;;;3.30;3.20;;;;;;;;;;10318902;28;20242;-75
2023/07/09 22:58:44;;;;;;;3.47;3.28;;;;;;;;;;10318262;28;20292;-76
2023/07/09 23:03:45;;;;;;;2.45;2.45;;;;;;;;;;10316533;28;20217;-79
2023/07/09 23:08:47;;;;;;;3.03;2.80;;;;;;;;;;10324901;28;20231;-79
2023/07/09 23:13:48;;;;;;;2.97;2.88;;;;;;;;;;10332289;28;20219;-77
2023/07/09 23:18:50;;;;;;;2.45;2.28;;;;;;;;;;10325411;28;20215;-79
2023/07/09 23:23:58;;;;;;;2.72;2.63;;;;;;;;;;10320659;28;20228;-78
2023/07/09 23:28:59;;;;;;;2.22;2.00;;;;;;;;;;10329118;28;20212;-78
2023/07/09 23:34:00;;;;;;;2.55;2.35;;;;;;;;;;10313857;28;20208;-76
2023/07/09 23:39:01;;;;;;;6.28;2.00;;;;;;;;;;10328657;28;20419;-78
2023/07/09 23:44:03;;;;;;;1.88;1.88;;;;;;;;;;10329483;28;20216;-77
2023/07/09 23:49:05;;;;;;;2.88;2.72;;;;;;;;;;10332526;28;20232;-78
2023/07/09 23:54:10;;;;;;;2.58;2.47;;;;;;;;;;10318677;28;20247;-79
2023/07/09 23:59:13;;;;;;;3.08;2.72;;;;;;;;;;10313806;28;20219;-79
